sensor_id;sensor_type;location;lat;lon;timestamp;pressure;altitude;pressure_sealevel;temperature;humidity
18850;BME280;4989;48.772;9.154;2023-01-25T00:01:26;99618.44;;;6.38;100.00
18850;BME280;4989;48.772;9.154;2023-01-25T00:06:29;99609.00;;;6.48;100.00
18850;BME280;4989;48.772;9.154;2023-01-25T00:11:31;99596.75;;;6.34;100.00
18850;BME280;4989;48.772;9.154;2023-01-25T00:16:34;99589.72;;;6.14;100.00
18850;BME280;4989;48.772;9.154;2023-01-25T00:21:40;99586.66;;;6.31;100.00
18850;BME280;4989;48.772;9.154;2023-01-25T00:26:42;99582.97;;;6.39;100.00
18850;BME280;4989;48.772;9.154;2023-01-25T00:37:19;99587.97;;;6.57;100.00
18850;BME280;4989;48.772;9.154;2023-01-25T00:42:23;99594.22;;;6.61;100.00
18850;BME280;4989;48.772;9.154;2023-01-25T00:47:25;99595.97;;;6.69;100.00
18850;BME280;4989;48.772;9.154;2023-01-25T00:52:28;99582.22;;;6.58;100.00
18850;BME280;4989;48.772;9.154;2023-01-25T00:57:30;99575.06;;;6.66;100.00
18850;BME280;4989;48.772;9.154;2023-01-25T01:02:33;99571.28;;;6.51;100.00
18850;BME280;4989;48.772;9.154;2023-01-25T01:07:35;99566.41;;;6.22;100.00
18850;BME280;4989;48.772;9.154;2023-01-25T01:12:38;99571.03;;;6.21;100.00
18850;BME280;4989;48.772;9.154;2023-01-25T01:17:41;99562.47;;;6.19;100.00
18850;BME280;4989;48.772;9.154;2023-01-25T01:22:46;99568.91;;;6.30;100.00
18850;BME280;4989;48.772;9.154;2023-01-25T01:27:49;99569.56;;;6.43;100.00
18850;BME280;4989;48.772;9.154;2023-01-25T01:32:51;99566.31;;;6.18;100.00
18850;BME280;4989;48.772;9.154;2023-01-25T01:37:54;99576.34;;;6.17;100.00
18850;BME280;4989;48.772;9.154;2023-01-25T01:43:03;99566.53;;;6.29;100.00
18850;BME280;4989;48.772;9.154;2023-01-25T01:49:03;99564.59;;;6.45;100.00
18850;BME280;4989;48.772;9.154;2023-01-25T01:59:13;99567.28;;;6.45;100.00
18850;BME280;4989;48.772;9.154;2023-01-25T02:04:18;99574.69;;;6.48;100.00
18850;BME280;4989;48.772;9.154;2023-01-25T02:09:23;99566.78;;;6.39;100.00
18850;BME280;4989;48.772;9.154;2023-01-25T02:14:28;99568.19;;;6.33;100.00
18850;BME280;4989;48.772;9.154;2023-01-25T02:25:16;99564.78;;;6.56;100.00
18850;BME280;4989;48.772;9.154;2023-01-25T02:30:18;99563.66;;;6.37;100.00
18850;BME280;4989;48.772;9.154;2023-01-25T02:35:24;99549.81;;;6.39;100.00
18850;BME280;4989;48.772;9.154;2023-01-25T02:40:27;99548.31;;;6.41;100.00
18850;BME280;4989;48.772;9.154;2023-01-25T02:45:32;99547.31;;;6.50;100.00
18850;BME280;4989;48.772;9.154;2023-01-25T02:50:35;99546.75;;;6.60;100.00
18850;BME280;4989;48.772;9.154;2023-01-25T02:55:37;99542.19;;;6.64;100.00
18850;BME280;4989;48.772;9.154;2023-01-25T03:00:42;99540.69;;;6.86;100.00
18850;BME280;4989;48.772;9.154;2023-01-25T03:05:45;99526.78;;;6.84;100.00
18850;BME280;4989;48.772;9.154;2023-01-25T03:10:48;99521.28;;;6.80;100.00
18850;BME280;4989;48.772;9.154;2023-01-25T03:15:51;99516.75;;;6.65;100.00
18850;BME280;4989;48.772;9.154;2023-01-25T03:20:54;99505.38;;;6.56;100.00
18850;BME280;4989;48.772;9.154;2023-01-25T03:26:14;99499.41;;;6.27;100.00
18850;BME280;4989;48.772;9.154;2023-01-25T03:31:33;99500.78;;;6.02;100.00
18850;BME280;4989;48.772;9.154;2023-01-25T03:36:36;99498.84;;;6.37;100.00
18850;BME280;4989;48.772;9.154;2023-01-25T03:41:39;99505.88;;;6.42;100.00
18850;BME280;4989;48.772;9.154;2023-01-25T03:46:44;99502.97;;;6.51;100.00
18850;BME280;4989;48.772;9.154;2023-01-25T03:51:47;99497.78;;;6.61;100.00
18850;BME280;4989;48.772;9.154;2023-01-25T03:56:52;99493.16;;;6.62;100.00
18850;BME280;4989;48.772;9.154;2023-01-25T04:01:59;99489.63;;;6.38;100.00
18850;BME280;4989;48.772;9.154;2023-01-25T04:07:01;99486.56;;;6.40;100.00
18850;BME280;4989;48.772;9.154;2023-01-25T04:12:06;99490.91;;;6.45;100.00
18850;BME280;4989;48.772;9.154;2023-01-25T04:17:09;99490.88;;;6.64;100.00
18850;BME280;4989;48.772;9.154;2023-01-25T04:22:22;99494.06;;;6.70;100.00
18850;BME280;4989;48.772;9.154;2023-01-25T04:27:27;99487.50;;;6.48;100.00
18850;BME280;4989;48.772;9.154;2023-01-25T04:32:39;99489.88;;;6.53;100.00
18850;BME280;4989;48.772;9.154;2023-01-25T04:37:58;99480.78;;;6.61;100.00
18850;BME280;4989;48.772;9.154;2023-01-25T04:43:10;99473.50;;;6.84;100.00
18850;BME280;4989;48.772;9.154;2023-01-25T04:48:14;99478.31;;;6.95;100.00
18850;BME280;4989;48.772;9.154;2023-01-25T04:53:24;99463.97;;;6.91;100.00
18850;BME280;4989;48.772;9.154;2023-01-25T04:58:27;99480.19;;;6.71;100.00
18850;BME280;4989;48.772;9.154;2023-01-25T05:03:30;99474.38;;;6.69;100.00
18850;BME280;4989;48.772;9.154;2023-01-25T05:08:33;99472.72;;;6.84;100.00
18850;BME280;4989;48.772;9.154;2023-01-25T05:13:37;99470.44;;;6.86;100.00
18850;BME280;4989;48.772;9.154;2023-01-25T05:18:50;99467.16;;;6.96;100.00
18850;BME280;4989;48.772;9.154;2023-01-25T05:23:56;99464.34;;;6.93;100.00
18850;BME280;4989;48.772;9.154;2023-01-25T05:28:58;99457.34;;;6.88;100.00
18850;BME280;4989;48.772;9.154;2023-01-25T05:34:18;99461.06;;;6.80;100.00
18850;BME280;4989;48.772;9.154;2023-01-25T05:39:21;99459.06;;;6.77;100.00
18850;BME280;4989;48.772;9.154;2023-01-25T05:44:25;99457.50;;;6.99;100.00
18850;BME280;4989;48.772;9.154;2023-01-25T05:49:29;99457.50;;;6.99;100.00
18850;BME280;4989;48.772;9.154;2023-01-25T05:54:32;99455.84;;;6.91;100.00
18850;BME280;4989;48.772;9.154;2023-01-25T05:59:39;99446.84;;;7.06;100.00
18850;BME280;4989;48.772;9.154;2023-01-25T06:04:43;99443.78;;;6.84;100.00
18850;BME280;4989;48.772;9.154;2023-01-25T06:09:47;99445.88;;;6.95;100.00
18850;BME280;4989;48.772;9.154;2023-01-25T06:14:52;99448.16;;;6.93;100.00
18850;BME280;4989;48.772;9.154;2023-01-25T06:19:55;99448.31;;;6.80;100.00
18850;BME280;4989;48.772;9.154;2023-01-25T06:25:18;99445.94;;;6.98;100.00
18850;BME280;4989;48.772;9.154;2023-01-25T06:30:20;99447.84;;;6.75;100.00
18850;BME280;4989;48.772;9.154;2023-01-25T06:35:23;99438.94;;;6.74;100.00
18850;BME280;4989;48.772;9.154;2023-01-25T06:40:26;99443.88;;;6.69;100.00
18850;BME280;4989;48.772;9.154;2023-01-25T06:45:29;99432.78;;;6.97;100.00
18850;BME280;4989;48.772;9.154;2023-01-25T06:50:32;99431.75;;;7.05;100.00
18850;BME280;4989;48.772;9.154;2023-01-25T06:55:34;99419.81;;;7.06;100.00
18850;BME280;4989;48.772;9.154;2023-01-25T07:00:37;99427.63;;;7.11;100.00
18850;BME280;4989;48.772;9.154;2023-01-25T07:05:39;99423.00;;;7.11;100.00
18850;BME280;4989;48.772;9.154;2023-01-25T07:10:42;99405.72;;;6.93;100.00
18850;BME280;4989;48.772;9.154;2023-01-25T07:15:46;99413.44;;;6.95;100.00
18850;BME280;4989;48.772;9.154;2023-01-25T07:20:53;99405.88;;;7.04;100.00
18850;BME280;4989;48.772;9.154;2023-01-25T07:25:55;99416.53;;;7.20;100.00
18850;BME280;4989;48.772;9.154;2023-01-25T07:31:06;99402.25;;;7.19;100.00
18850;BME280;4989;48.772;9.154;2023-01-25T07:36:10;99404.94;;;7.19;100.00
18850;BME280;4989;48.772;9.154;2023-01-25T07:41:13;99404.91;;;7.16;100.00
18850;BME280;4989;48.772;9.154;2023-01-25T07:46:18;99394.09;;;6.93;100.00
18850;BME280;4989;48.772;9.154;2023-01-25T07:51:22;99392.84;;;6.86;100.00
18850;BME280;4989;48.772;9.154;2023-01-25T07:56:27;99386.66;;;7.09;100.00
18850;BME280;4989;48.772;9.154;2023-01-25T08:01:31;99396.59;;;7.05;100.00
18850;BME280;4989;48.772;9.154;2023-01-25T08:06:37;99399.50;;;6.93;100.00
18850;BME280;4989;48.772;9.154;2023-01-25T08:11:41;99412.09;;;7.08;100.00
18850;BME280;4989;48.772;9.154;2023-01-25T08:16:44;99403.16;;;7.04;100.00
18850;BME280;4989;48.772;9.154;2023-01-25T08:21:47;99400.13;;;7.05;100.00
18850;BME280;4989;48.772;9.154;2023-01-25T08:26:49;99402.16;;;7.12;100.00
18850;BME280;4989;48.772;9.154;2023-01-25T08:31:52;99411.22;;;7.23;100.00
18850;BME280;4989;48.772;9.154;2023-01-25T08:36:55;99410.16;;;7.31;100.00
18850;BME280;4989;48.772;9.154;2023-01-25T08:41:57;99399.44;;;7.39;100.00
18850;BME280;4989;48.772;9.154;2023-01-25T08:46:59;99396.97;;;7.26;100.00
18850;BME280;4989;48.772;9.154;2023-01-25T08:52:02;99389.50;;;7.20;100.00
18850;BME280;4989;48.772;9.154;2023-01-25T08:57:05;99389.53;;;6.97;100.00
18850;BME280;4989;48.772;9.154;2023-01-25T09:02:10;99375.16;;;7.16;100.00
18850;BME280;4989;48.772;9.154;2023-01-25T09:07:13;99372.97;;;7.25;100.00
18850;BME280;4989;48.772;9.154;2023-01-25T09:12:16;99365.75;;;7.32;100.00
18850;BME280;4989;48.772;9.154;2023-01-25T09:17:18;99368.19;;;7.15;100.00
18850;BME280;4989;48.772;9.154;2023-01-25T09:22:21;99366.19;;;7.38;100.00
18850;BME280;4989;48.772;9.154;2023-01-25T09:27:23;99371.69;;;7.42;100.00
18850;BME280;4989;48.772;9.154;2023-01-25T09:32:26;99362.97;;;7.29;100.00
18850;BME280;4989;48.772;9.154;2023-01-25T09:37:29;99370.28;;;7.25;100.00
18850;BME280;4989;48.772;9.154;2023-01-25T09:53:36;99363.66;;;7.22;100.00
18850;BME280;4989;48.772;9.154;2023-01-25T09:58:43;99364.50;;;7.00;100.00
18850;BME280;4989;48.772;9.154;2023-01-25T10:04:09;99366.28;;;7.15;100.00
18850;BME280;4989;48.772;9.154;2023-01-25T10:14:21;99355.66;;;7.03;100.00
18850;BME280;4989;48.772;9.154;2023-01-25T10:25:03;99347.19;;;7.61;100.00
18850;BME280;4989;48.772;9.154;2023-01-25T10:30:27;99345.25;;;7.31;100.00
18850;BME280;4989;48.772;9.154;2023-01-25T10:35:35;99332.84;;;7.27;100.00
18850;BME280;4989;48.772;9.154;2023-01-25T10:41:33;99333.63;;;7.27;100.00
18850;BME280;4989;48.772;9.154;2023-01-25T10:46:22;99323.78;;;7.42;100.00
18850;BME280;4989;48.772;9.154;2023-01-25T10:51:33;99318.63;;;7.33;100.00
18850;BME280;4989;48.772;9.154;2023-01-25T10:56:39;99307.81;;;7.33;100.00
18850;BME280;4989;48.772;9.154;2023-01-25T11:01:42;99310.44;;;7.26;100.00
18850;BME280;4989;48.772;9.154;2023-01-25T11:06:48;99299.31;;;7.35;100.00
18850;BME280;4989;48.772;9.154;2023-01-25T11:12:03;99303.00;;;7.50;100.00
18850;BME280;4989;48.772;9.154;2023-01-25T11:17:22;99297.75;;;7.04;99.23
18850;BME280;4989;48.772;9.154;2023-01-25T11:22:25;99297.31;;;7.02;100.00
18850;BME280;4989;48.772;9.154;2023-01-25T11:27:27;99293.28;;;7.15;100.00
18850;BME280;4989;48.772;9.154;2023-01-25T11:32:30;99293.28;;;7.15;100.00
18850;BME280;4989;48.772;9.154;2023-01-25T11:54:09;99254.78;;;7.25;100.00
18850;BME280;4989;48.772;9.154;2023-01-25T12:05:13;99232.06;;;7.00;98.97
18850;BME280;4989;48.772;9.154;2023-01-25T12:26:58;99179.00;;;7.18;100.00
18850;BME280;4989;48.772;9.154;2023-01-25T12:32:11;99161.31;;;7.24;100.00
18850;BME280;4989;48.772;9.154;2023-01-25T12:37:23;99148.06;;;7.16;100.00
18850;BME280;4989;48.772;9.154;2023-01-25T12:42:33;99143.16;;;7.25;100.00
18850;BME280;4989;48.772;9.154;2023-01-25T13:09:21;99103.78;;;6.90;100.00
18850;BME280;4989;48.772;9.154;2023-01-25T13:14:36;99099.28;;;7.05;100.00
18850;BME280;4989;48.772;9.154;2023-01-25T13:19:41;99094.81;;;7.20;100.00
18850;BME280;4989;48.772;9.154;2023-01-25T13:40:34;99074.09;;;6.60;98.55
18850;BME280;4989;48.772;9.154;2023-01-25T13:45:39;99069.50;;;6.64;100.00
18850;BME280;4989;48.772;9.154;2023-01-25T13:50:46;99057.03;;;6.56;100.00
18850;BME280;4989;48.772;9.154;2023-01-25T13:55:55;99051.31;;;6.95;100.00
18850;BME280;4989;48.772;9.154;2023-01-25T14:01:03;99059.31;;;7.21;100.00
18850;BME280;4989;48.772;9.154;2023-01-25T14:06:25;99037.81;;;7.36;100.00
18850;BME280;4989;48.772;9.154;2023-01-25T14:11:30;99037.69;;;7.21;100.00
18850;BME280;4989;48.772;9.154;2023-01-25T14:16:35;99039.22;;;6.81;100.00
18850;BME280;4989;48.772;9.154;2023-01-25T14:21:38;99045.94;;;6.98;100.00
18850;BME280;4989;48.772;9.154;2023-01-25T14:26:42;99045.06;;;6.53;95.51
18850;BME280;4989;48.772;9.154;2023-01-25T14:31:49;99046.81;;;6.38;100.00
18850;BME280;4989;48.772;9.154;2023-01-25T14:37:13;99042.00;;;6.55;100.00
18850;BME280;4989;48.772;9.154;2023-01-25T14:42:18;99045.75;;;6.80;100.00
18850;BME280;4989;48.772;9.154;2023-01-25T14:47:30;99037.88;;;6.64;99.36
18850;BME280;4989;48.772;9.154;2023-01-25T14:52:35;99033.72;;;6.40;100.00
18850;BME280;4989;48.772;9.154;2023-01-25T14:57:40;99026.84;;;6.47;100.00
18850;BME280;4989;48.772;9.154;2023-01-25T15:02:54;99021.09;;;6.85;100.00
18850;BME280;4989;48.772;9.154;2023-01-25T15:23:47;98995.59;;;4.28;100.00
18850;BME280;4989;48.772;9.154;2023-01-25T15:28:53;98986.81;;;4.31;100.00
18850;BME280;4989;48.772;9.154;2023-01-25T15:33:57;98989.66;;;4.80;100.00
18850;BME280;4989;48.772;9.154;2023-01-25T15:39:00;98980.47;;;4.39;100.00
18850;BME280;4989;48.772;9.154;2023-01-25T15:44:02;98969.50;;;4.71;100.00
18850;BME280;4989;48.772;9.154;2023-01-25T15:49:06;98967.34;;;4.80;100.00
18850;BME280;4989;48.772;9.154;2023-01-25T15:54:09;98952.41;;;5.05;100.00
18850;BME280;4989;48.772;9.154;2023-01-25T15:59:16;98948.31;;;5.68;100.00
18850;BME280;4989;48.772;9.154;2023-01-25T16:04:19;98945.06;;;5.82;100.00
18850;BME280;4989;48.772;9.154;2023-01-25T16:09:26;98938.66;;;5.64;100.00
18850;BME280;4989;48.772;9.154;2023-01-25T16:14:31;98943.25;;;5.37;100.00
18850;BME280;4989;48.772;9.154;2023-01-25T16:19:33;98930.59;;;5.41;100.00
18850;BME280;4989;48.772;9.154;2023-01-25T16:24:39;98928.81;;;5.48;100.00
18850;BME280;4989;48.772;9.154;2023-01-25T16:29:42;98928.16;;;5.05;100.00
18850;BME280;4989;48.772;9.154;2023-01-25T16:34:44;98918.56;;;4.62;100.00
18850;BME280;4989;48.772;9.154;2023-01-25T16:39:47;98925.00;;;4.34;100.00
18850;BME280;4989;48.772;9.154;2023-01-25T16:44:51;98920.91;;;4.64;100.00
18850;BME280;4989;48.772;9.154;2023-01-25T16:49:53;98930.34;;;5.23;100.00
18850;BME280;4989;48.772;9.154;2023-01-25T16:54:56;98927.94;;;5.71;100.00
18850;BME280;4989;48.772;9.154;2023-01-25T16:59:58;98921.25;;;6.18;100.00
18850;BME280;4989;48.772;9.154;2023-01-25T17:05:05;98921.50;;;5.79;99.68
18850;BME280;4989;48.772;9.154;2023-01-25T17:10:08;98914.09;;;4.70;100.00
18850;BME280;4989;48.772;9.154;2023-01-25T17:15:12;98906.16;;;4.54;100.00
18850;BME280;4989;48.772;9.154;2023-01-25T17:20:15;98905.19;;;4.04;100.00
18850;BME280;4989;48.772;9.154;2023-01-25T17:25:18;98909.31;;;3.78;100.00
18850;BME280;4989;48.772;9.154;2023-01-25T17:30:20;98896.16;;;4.12;100.00
18850;BME280;4989;48.772;9.154;2023-01-25T17:35:23;98882.75;;;3.96;100.00
18850;BME280;4989;48.772;9.154;2023-01-25T17:40:25;98875.97;;;3.63;100.00
18850;BME280;4989;48.772;9.154;2023-01-25T17:45:28;98883.16;;;4.37;100.00
18850;BME280;4989;48.772;9.154;2023-01-25T17:50:30;98872.22;;;4.49;100.00
18850;BME280;4989;48.772;9.154;2023-01-25T17:55:36;98868.38;;;4.50;100.00
18850;BME280;4989;48.772;9.154;2023-01-25T18:00:40;98869.53;;;4.72;100.00
18850;BME280;4989;48.772;9.154;2023-01-25T18:05:42;98852.63;;;5.25;100.00
18850;BME280;4989;48.772;9.154;2023-01-25T18:10:46;98847.31;;;5.32;100.00
18850;BME280;4989;48.772;9.154;2023-01-25T18:15:53;98846.00;;;5.79;100.00
18850;BME280;4989;48.772;9.154;2023-01-25T18:21:07;98845.69;;;5.24;100.00
18850;BME280;4989;48.772;9.154;2023-01-25T18:26:17;98844.19;;;4.77;100.00
18850;BME280;4989;48.772;9.154;2023-01-25T18:31:21;98837.38;;;4.83;100.00
18850;BME280;4989;48.772;9.154;2023-01-25T18:36:23;98824.41;;;5.45;100.00
18850;BME280;4989;48.772;9.154;2023-01-25T18:41:29;98817.34;;;5.67;100.00
18850;BME280;4989;48.772;9.154;2023-01-25T18:46:31;98815.41;;;5.08;100.00
18850;BME280;4989;48.772;9.154;2023-01-25T18:51:34;98815.28;;;4.47;100.00
18850;BME280;4989;48.772;9.154;2023-01-25T18:56:57;98808.44;;;4.53;100.00
18850;BME280;4989;48.772;9.154;2023-01-25T19:01:59;98811.06;;;4.73;100.00
18850;BME280;4989;48.772;9.154;2023-01-25T19:07:02;98804.59;;;4.51;100.00
18850;BME280;4989;48.772;9.154;2023-01-25T19:12:05;98803.00;;;4.50;100.00
18850;BME280;4989;48.772;9.154;2023-01-25T19:17:07;98798.06;;;4.52;100.00
18850;BME280;4989;48.772;9.154;2023-01-25T19:22:10;98797.41;;;4.85;100.00
18850;BME280;4989;48.772;9.154;2023-01-25T19:27:12;98796.56;;;4.31;100.00
18850;BME280;4989;48.772;9.154;2023-01-25T19:32:15;98799.72;;;4.37;100.00
18850;BME280;4989;48.772;9.154;2023-01-25T19:37:18;98795.53;;;4.17;100.00
18850;BME280;4989;48.772;9.154;2023-01-25T19:42:20;98776.41;;;4.22;100.00
18850;BME280;4989;48.772;9.154;2023-01-25T19:47:23;98784.19;;;4.27;100.00
18850;BME280;4989;48.772;9.154;2023-01-25T19:52:25;98777.69;;;4.28;100.00
18850;BME280;4989;48.772;9.154;2023-01-25T19:57:28;98771.56;;;4.08;100.00
18850;BME280;4989;48.772;9.154;2023-01-25T20:02:31;98769.03;;;4.42;100.00
18850;BME280;4989;48.772;9.154;2023-01-25T20:07:33;98765.91;;;4.36;100.00
18850;BME280;4989;48.772;9.154;2023-01-25T20:12:36;98758.84;;;5.08;100.00
18850;BME280;4989;48.772;9.154;2023-01-25T20:17:38;98749.00;;;5.53;100.00
18850;BME280;4989;48.772;9.154;2023-01-25T20:22:41;98753.44;;;5.71;100.00
18850;BME280;4989;48.772;9.154;2023-01-25T20:27:43;98736.25;;;5.87;100.00
18850;BME280;4989;48.772;9.154;2023-01-25T20:32:46;98729.84;;;5.99;100.00
18850;BME280;4989;48.772;9.154;2023-01-25T20:37:50;98724.16;;;6.11;100.00
18850;BME280;4989;48.772;9.154;2023-01-25T20:42:52;98723.50;;;6.25;100.00
18850;BME280;4989;48.772;9.154;2023-01-25T20:47:55;98718.53;;;6.30;100.00
18850;BME280;4989;48.772;9.154;2023-01-25T20:52:57;98715.97;;;6.45;100.00
18850;BME280;4989;48.772;9.154;2023-01-25T20:58:00;98707.38;;;6.35;100.00
18850;BME280;4989;48.772;9.154;2023-01-25T21:03:02;98697.31;;;6.32;100.00
18850;BME280;4989;48.772;9.154;2023-01-25T21:08:05;98695.75;;;6.24;100.00
18850;BME280;4989;48.772;9.154;2023-01-25T21:13:07;98684.13;;;6.20;100.00
18850;BME280;4989;48.772;9.154;2023-01-25T21:18:10;98680.22;;;6.10;100.00
18850;BME280;4989;48.772;9.154;2023-01-25T21:23:12;98682.69;;;6.30;100.00
18850;BME280;4989;48.772;9.154;2023-01-25T21:28:15;98669.50;;;6.21;100.00
18850;BME280;4989;48.772;9.154;2023-01-25T21:33:17;98664.16;;;6.28;100.00
18850;BME280;4989;48.772;9.154;2023-01-25T21:38:20;98656.50;;;6.37;100.00
18850;BME280;4989;48.772;9.154;2023-01-25T21:43:23;98655.13;;;6.03;100.00
18850;BME280;4989;48.772;9.154;2023-01-25T21:48:25;98650.09;;;6.05;100.00
18850;BME280;4989;48.772;9.154;2023-01-25T21:54:06;98645.41;;;5.94;100.00
18850;BME280;4989;48.772;9.154;2023-01-25T21:59:09;98649.03;;;6.20;100.00
18850;BME280;4989;48.772;9.154;2023-01-25T22:04:13;98638.75;;;6.36;100.00
18850;BME280;4989;48.772;9.154;2023-01-25T22:09:16;98639.53;;;6.40;100.00
18850;BME280;4989;48.772;9.154;2023-01-25T22:14:19;98645.69;;;6.34;100.00
18850;BME280;4989;48.772;9.154;2023-01-25T22:19:24;98626.41;;;6.35;100.00
18850;BME280;4989;48.772;9.154;2023-01-25T22:24:26;98636.09;;;6.43;100.00
18850;BME280;4989;48.772;9.154;2023-01-25T22:29:30;98628.75;;;6.40;100.00
18850;BME280;4989;48.772;9.154;2023-01-25T22:34:33;98633.38;;;6.43;100.00
18850;BME280;4989;48.772;9.154;2023-01-25T22:39:36;98618.69;;;6.37;100.00
18850;BME280;4989;48.772;9.154;2023-01-25T22:44:38;98616.34;;;6.32;100.00
18850;BME280;4989;48.772;9.154;2023-01-25T22:49:41;98627.22;;;6.39;100.00
18850;BME280;4989;48.772;9.154;2023-01-25T22:54:43;98615.59;;;6.32;100.00
18850;BME280;4989;48.772;9.154;2023-01-25T22:59:46;98620.94;;;6.21;100.00
18850;BME280;4989;48.772;9.154;2023-01-25T23:04:48;98609.41;;;6.31;100.00
18850;BME280;4989;48.772;9.154;2023-01-25T23:09:51;98606.69;;;6.24;100.00
18850;BME280;4989;48.772;9.154;2023-01-25T23:14:54;98610.16;;;6.28;100.00
18850;BME280;4989;48.772;9.154;2023-01-25T23:20:00;98604.81;;;6.35;100.00
18850;BME280;4989;48.772;9.154;2023-01-25T23:25:03;98602.38;;;6.16;100.00
18850;BME280;4989;48.772;9.154;2023-01-25T23:30:06;98595.03;;;6.13;100.00
18850;BME280;4989;48.772;9.154;2023-01-25T23:35:11;98590.13;;;6.29;100.00
18850;BME280;4989;48.772;9.154;2023-01-25T23:40:13;98589.78;;;5.79;100.00
18850;BME280;4989;48.772;9.154;2023-01-25T23:45:16;98583.78;;;5.96;100.00
18850;BME280;4989;48.772;9.154;2023-01-25T23:50:19;98574.63;;;6.15;100.00
18850;BME280;4989;48.772;9.154;2023-01-25T23:55:21;98566.19;;;6.24;100.00
